createdAt,value
2022-08-20T00:00:46.269Z,79.00
2022-08-20T00:03:27.620Z,79.20
2022-08-20T00:05:59.729Z,80.00
2022-08-20T00:08:27.639Z,80.50
2022-08-20T00:10:55.828Z,80.30
2022-08-20T00:13:26.249Z,81.00
2022-08-20T00:15:53.472Z,82.20
2022-08-20T00:18:21.895Z,82.40
2022-08-20T00:20:51.460Z,83.30
2022-08-20T00:23:19.424Z,84.40
2022-08-20T00:25:46.521Z,84.70
2022-08-20T00:28:13.242Z,85.20
2022-08-20T00:30:43.650Z,85.50
2022-08-20T00:33:13.962Z,86.40
2022-08-20T00:35:46.810Z,87.50
2022-08-20T00:38:14.554Z,88.30
2022-08-20T00:40:48.774Z,88.80
2022-08-20T00:43:35.436Z,90.00
2022-08-20T00:46:09.150Z,90.50
2022-08-20T00:48:38.354Z,90.50
2022-08-20T00:51:21.034Z,90.80
2022-08-20T00:53:47.971Z,91.40
2022-08-20T00:56:14.981Z,91.00
2022-08-20T00:58:45.050Z,91.20
2022-08-20T01:01:12.345Z,91.20
2022-08-20T01:03:42.233Z,91.50
2022-08-20T01:06:11.586Z,91.70
2022-08-20T01:08:39.896Z,91.70
2022-08-20T01:11:10.541Z,91.70
2022-08-20T01:13:39.505Z,91.70
2022-08-20T01:16:14.487Z,91.80
2022-08-20T01:18:48.259Z,92.00
2022-08-20T01:21:17.462Z,91.80
2022-08-20T01:23:56.714Z,91.80
2022-08-20T01:26:27.262Z,92.00
2022-08-20T01:29:13.982Z,91.90
2022-08-20T01:31:42.167Z,92.40
2022-08-20T01:34:12.834Z,91.90
2022-08-20T01:36:46.355Z,92.00
2022-08-20T01:39:16.647Z,92.20
2022-08-20T01:41:55.939Z,92.00
2022-08-20T01:44:24.948Z,92.40
2022-08-20T01:46:55.682Z,92.10
2022-08-20T01:49:27.922Z,92.20
2022-08-20T01:51:58.829Z,92.30
2022-08-20T01:54:26.027Z,92.20
2022-08-20T01:57:22.204Z,92.20
2022-08-20T01:59:50.406Z,92.20
2022-08-20T02:02:17.102Z,92.30
2022-08-20T02:04:44.323Z,92.20
2022-08-20T02:07:18.411Z,92.30
2022-08-20T02:09:47.386Z,92.70
2022-08-20T02:12:14.305Z,92.50
2022-08-20T02:14:44.447Z,92.50
2022-08-20T02:17:12.140Z,92.60
2022-08-20T02:19:46.222Z,92.70
2022-08-20T02:22:26.122Z,93.00
2022-08-20T02:24:53.510Z,93.10
2022-08-20T02:27:23.663Z,92.80
2022-08-20T02:29:51.898Z,92.80
2022-08-20T02:32:24.984Z,92.90
2022-08-20T02:35:02.133Z,92.80
2022-08-20T02:37:29.343Z,92.80
2022-08-20T02:39:56.071Z,92.90
2022-08-20T02:42:22.812Z,92.90
2022-08-20T02:44:49.642Z,92.80
2022-08-20T02:47:17.077Z,92.90
2022-08-20T02:49:43.817Z,93.00
2022-08-20T02:52:10.543Z,93.10
2022-08-20T02:54:37.239Z,93.10
2022-08-20T02:57:04.705Z,93.10
2022-08-20T02:59:31.603Z,93.10
2022-08-20T03:02:00.352Z,93.20
2022-08-20T03:04:31.001Z,93.20
2022-08-20T03:06:58.497Z,93.40
2022-08-20T03:09:25.330Z,93.30
2022-08-20T03:11:52.748Z,93.20
2022-08-20T03:14:22.301Z,93.20
2022-08-20T03:16:49.564Z,93.30
2022-08-20T03:19:16.255Z,93.20
2022-08-20T03:21:43.211Z,93.40
2022-08-20T03:24:09.890Z,93.40
2022-08-20T03:26:36.550Z,93.40
2022-08-20T03:29:03.986Z,93.40
2022-08-20T03:31:30.825Z,93.40
2022-08-20T03:33:57.521Z,93.40
2022-08-20T03:36:28.624Z,93.40
2022-08-20T03:39:03.513Z,93.50
2022-08-20T03:41:32.080Z,93.50
2022-08-20T03:43:58.837Z,93.40
2022-08-20T03:46:25.554Z,93.30
2022-08-20T03:49:00.400Z,93.70
2022-08-20T03:51:31.299Z,93.40
2022-08-20T03:53:58.860Z,93.50
2022-08-20T03:56:26.594Z,93.40
2022-08-20T03:58:53.376Z,93.40
2022-08-20T04:01:37.184Z,93.40
2022-08-20T04:04:12.612Z,93.50
2022-08-20T04:06:41.235Z,93.60
2022-08-20T04:09:09.670Z,93.60
2022-08-20T04:11:38.405Z,93.60
2022-08-20T04:14:05.102Z,93.50
2022-08-20T04:16:32.973Z,93.60
2022-08-20T04:19:02.540Z,93.50
2022-08-20T04:21:33.940Z,93.60
2022-08-20T04:24:02.926Z,93.70
2022-08-20T04:26:30.441Z,93.60
2022-08-20T04:28:57.310Z,93.70
2022-08-20T04:31:33.209Z,93.60
2022-08-20T04:34:04.512Z,93.60
2022-08-20T04:36:31.395Z,93.60
2022-08-20T04:38:58.148Z,93.50
2022-08-20T04:41:24.791Z,93.50
2022-08-20T04:43:55.807Z,93.50
2022-08-20T04:46:25.571Z,93.70
2022-08-20T04:48:53.156Z,93.60
2022-08-20T04:51:22.854Z,93.70
2022-08-20T04:53:52.188Z,93.70
2022-08-20T04:56:23.781Z,93.80
2022-08-20T04:58:52.461Z,93.80
2022-08-20T05:01:19.757Z,93.80
2022-08-20T05:03:49.637Z,93.80
2022-08-20T05:06:17.810Z,93.80
2022-08-20T05:08:44.930Z,93.80
2022-08-20T05:11:34.519Z,93.90
2022-08-20T05:13:58.939Z,93.90
2022-08-20T05:16:25.757Z,93.90
2022-08-20T05:18:53.014Z,93.90
2022-08-20T05:21:20.696Z,93.90
2022-08-20T05:23:47.525Z,93.90
2022-08-20T05:26:15.953Z,93.90
2022-08-20T05:28:57.795Z,94.00
2022-08-20T05:31:31.608Z,94.00
2022-08-20T05:34:12.160Z,94.00
2022-08-20T05:36:45.309Z,94.20
2022-08-20T05:39:14.331Z,94.10
2022-08-20T05:41:41.575Z,93.90
2022-08-20T05:44:10.845Z,94.00
2022-08-20T05:46:40.666Z,94.20
2022-08-20T05:49:09.345Z,94.20
2022-08-20T05:51:36.937Z,94.20
2022-08-20T05:54:04.848Z,94.20
2022-08-20T05:56:32.408Z,94.20
2022-08-20T05:59:06.431Z,94.30
2022-08-20T06:01:35.540Z,94.40
2022-08-20T06:04:21.875Z,94.40
2022-08-20T06:06:48.681Z,94.40
2022-08-20T06:09:17.413Z,94.40
2022-08-20T06:11:59.507Z,94.40
2022-08-20T06:14:26.543Z,94.30
2022-08-20T06:16:57.837Z,94.50
2022-08-20T06:19:26.573Z,94.50
2022-08-20T06:21:53.859Z,94.40
2022-08-20T06:24:21.198Z,94.50
2022-08-20T06:26:47.920Z,94.40
2022-08-20T06:29:16.085Z,94.50
2022-08-20T06:31:42.734Z,94.40
2022-08-20T06:34:09.397Z,94.40
2022-08-20T06:36:36.065Z,94.50
2022-08-20T06:39:02.854Z,94.40
2022-08-20T06:41:35.776Z,94.40
2022-08-20T06:44:03.469Z,94.50
2022-08-20T06:46:30.158Z,94.40
2022-08-20T06:48:56.849Z,94.30
2022-08-20T06:51:23.511Z,94.30
2022-08-20T06:53:50.169Z,94.50
2022-08-20T06:56:16.852Z,94.50
2022-08-20T06:58:43.866Z,94.40
2022-08-20T07:01:12.054Z,94.40
2022-08-20T07:03:42.005Z,94.40
2022-08-20T07:06:09.812Z,94.40
2022-08-20T07:08:36.584Z,94.50
2022-08-20T07:11:03.561Z,94.90
2022-08-20T07:13:30.391Z,95.30
2022-08-20T07:15:57.090Z,95.30
2022-08-20T07:18:28.157Z,95.60
2022-08-20T07:20:57.139Z,95.60
2022-08-20T07:23:25.925Z,95.20
2022-08-20T07:25:53.453Z,94.80
2022-08-20T07:28:22.323Z,94.10
2022-08-20T07:31:13.476Z,93.00
2022-08-20T07:33:41.385Z,92.50
2022-08-20T07:36:09.681Z,92.40
2022-08-20T07:38:37.351Z,91.40
2022-08-20T07:41:08.151Z,91.70
2022-08-20T07:43:35.175Z,91.70
2022-08-20T07:46:07.393Z,91.50
2022-08-20T07:48:39.746Z,90.90
2022-08-20T07:51:08.823Z,90.00
2022-08-20T07:53:38.894Z,90.10
2022-08-20T07:56:08.898Z,89.40
2022-08-20T07:58:38.500Z,90.00
2022-08-20T08:01:06.724Z,90.50
2022-08-20T08:03:40.632Z,91.00
2022-08-20T08:06:29.990Z,90.00
2022-08-20T08:09:13.344Z,89.00
2022-08-20T08:11:47.804Z,85.50
2022-08-20T08:14:19.428Z,85.80
2022-08-20T08:16:46.181Z,85.70
2022-08-20T08:19:16.138Z,87.80
2022-08-20T08:21:44.134Z,88.20
2022-08-20T08:24:15.434Z,89.20
2022-08-20T08:26:46.025Z,89.00
2022-08-20T08:29:13.418Z,89.40
2022-08-20T08:31:41.190Z,89.00
2022-08-20T08:34:08.349Z,87.80
2022-08-20T08:36:35.017Z,86.90
2022-08-20T08:39:01.685Z,85.80
2022-08-20T08:41:37.268Z,84.20
2022-08-20T08:44:12.663Z,79.40
2022-08-20T08:46:43.114Z,78.20
2022-08-20T08:49:16.338Z,75.80
2022-08-20T08:51:47.913Z,72.50
2022-08-20T08:54:18.519Z,71.10
2022-08-20T08:56:50.228Z,68.70
2022-08-20T08:59:18.116Z,68.50
2022-08-20T09:01:54.450Z,68.00
2022-08-20T09:04:31.320Z,66.90
2022-08-20T09:06:58.668Z,67.40
2022-08-20T09:09:36.866Z,67.80
2022-08-20T09:12:10.832Z,65.60
2022-08-20T09:14:38.604Z,65.10
2022-08-20T09:17:06.136Z,64.50
2022-08-20T09:19:33.082Z,67.50
2022-08-20T09:22:06.393Z,66.90
2022-08-20T09:24:33.096Z,65.50
2022-08-20T09:26:59.757Z,65.00
2022-08-20T09:29:26.444Z,62.70
2022-08-20T09:32:11.891Z,62.10
2022-08-20T09:34:56.158Z,60.10
2022-08-20T09:37:24.931Z,59.10
2022-08-20T09:39:51.845Z,60.00
2022-08-20T09:42:22.678Z,60.10
2022-08-20T09:44:50.062Z,58.90
2022-08-20T09:47:17.597Z,58.90
2022-08-20T09:49:45.206Z,58.60
2022-08-20T09:52:25.207Z,58.60
2022-08-20T09:54:54.806Z,56.80
2022-08-20T09:57:22.279Z,58.20
2022-08-20T09:59:53.797Z,57.20
2022-08-20T10:02:20.622Z,56.40
2022-08-20T10:04:47.325Z,56.70
2022-08-20T10:07:16.066Z,56.30
2022-08-20T10:09:42.899Z,56.00
2022-08-20T10:12:09.866Z,55.40
2022-08-20T10:14:36.604Z,55.30
2022-08-20T10:17:03.747Z,55.40
2022-08-20T10:19:31.295Z,55.30
2022-08-20T10:21:58.826Z,55.50
2022-08-20T10:24:25.936Z,55.80
2022-08-20T10:26:59.415Z,56.30
2022-08-20T10:29:27.510Z,56.80
2022-08-20T10:31:55.682Z,57.40
2022-08-20T10:34:23.169Z,57.70
2022-08-20T10:36:49.882Z,57.90
2022-08-20T10:39:16.655Z,56.60
2022-08-20T10:41:43.413Z,57.00
2022-08-20T10:44:10.089Z,56.00
2022-08-20T10:46:36.720Z,55.90
2022-08-20T10:49:03.684Z,55.80
2022-08-20T10:51:32.687Z,55.60
2022-08-20T10:54:00.144Z,55.80
2022-08-20T10:56:26.890Z,54.90
2022-08-20T10:58:53.575Z,55.20
2022-08-20T11:01:31.283Z,55.40
2022-08-20T11:03:58.405Z,55.00
2022-08-20T11:06:25.214Z,55.40
2022-08-20T11:08:51.890Z,55.50
2022-08-20T11:11:19.540Z,55.80
2022-08-20T11:13:46.203Z,56.10
2022-08-20T11:16:12.892Z,56.00
2022-08-20T11:18:40.948Z,55.70
2022-08-20T11:21:10.450Z,56.10
2022-08-20T11:23:37.126Z,56.60
2022-08-20T11:26:03.798Z,57.00
2022-08-20T11:28:33.058Z,56.80
2022-08-20T11:31:01.254Z,56.80
2022-08-20T11:33:28.365Z,57.40
2022-08-20T11:35:55.136Z,58.10
2022-08-20T11:38:21.849Z,58.40
2022-08-20T11:40:48.559Z,58.50
2022-08-20T11:43:16.938Z,58.90
2022-08-20T11:45:47.493Z,59.40
2022-08-20T11:48:14.426Z,59.50
2022-08-20T11:50:41.121Z,59.40
2022-08-20T11:53:08.028Z,59.50
2022-08-20T11:55:35.522Z,59.10
2022-08-20T11:58:02.746Z,59.00
2022-08-20T12:00:32.952Z,58.80
2022-08-20T12:03:08.651Z,58.80
2022-08-20T12:05:37.296Z,58.90
2022-08-20T12:08:04.896Z,58.50
2022-08-20T12:10:31.895Z,58.50
2022-08-20T12:12:58.853Z,58.50
2022-08-20T12:15:27.439Z,58.50
2022-08-20T12:17:54.939Z,58.50
2022-08-20T12:20:22.715Z,58.70
2022-08-20T12:22:49.490Z,58.90
2022-08-20T12:25:16.373Z,59.40
2022-08-20T12:27:43.083Z,59.10
2022-08-20T12:30:13.569Z,59.10
2022-08-20T12:32:40.906Z,59.10
2022-08-20T12:35:09.144Z,59.30
2022-08-20T12:37:36.727Z,59.20
2022-08-20T12:40:07.408Z,59.30
2022-08-20T12:42:34.292Z,59.00
2022-08-20T12:45:01.450Z,59.40
2022-08-20T12:47:31.200Z,59.10
2022-08-20T12:50:07.387Z,58.80
2022-08-20T12:52:34.326Z,58.60
2022-08-20T12:55:01.813Z,58.50
2022-08-20T12:57:34.019Z,58.20
2022-08-20T13:00:11.836Z,58.20
2022-08-20T13:02:41.012Z,58.50
2022-08-20T13:05:09.938Z,58.50
2022-08-20T13:07:37.931Z,58.10
2022-08-20T13:10:06.507Z,58.20
2022-08-20T13:12:33.194Z,58.10
2022-08-20T13:14:59.994Z,58.20
2022-08-20T13:17:29.289Z,58.20
2022-08-20T13:20:09.095Z,58.00
2022-08-20T13:22:36.347Z,57.60
2022-08-20T13:25:04.506Z,57.40
2022-08-20T13:27:31.163Z,57.30
2022-08-20T13:29:59.107Z,57.40
2022-08-20T13:32:26.326Z,57.50
2022-08-20T13:34:53.254Z,57.20
2022-08-20T13:37:26.416Z,57.40
2022-08-20T13:39:54.262Z,57.40
2022-08-20T13:42:21.363Z,57.50
2022-08-20T13:44:49.030Z,57.50
2022-08-20T13:47:20.127Z,57.40
2022-08-20T13:49:47.787Z,57.30
2022-08-20T13:52:16.856Z,57.50
2022-08-20T13:54:43.910Z,57.20
2022-08-20T13:57:19.291Z,56.90
2022-08-20T13:59:48.750Z,56.40
2022-08-20T14:02:17.273Z,56.70
2022-08-20T14:04:44.414Z,56.80
2022-08-20T14:07:15.755Z,56.90
2022-08-20T14:09:44.864Z,56.90
2022-08-20T14:12:13.280Z,57.10
2022-08-20T14:14:41.114Z,57.10
2022-08-20T14:17:24.642Z,57.10
2022-08-20T14:20:00.264Z,56.90
2022-08-20T14:22:28.164Z,56.70
2022-08-20T14:24:54.860Z,56.50
2022-08-20T14:27:27.635Z,56.80
2022-08-20T14:29:58.016Z,56.30
2022-08-20T14:32:25.044Z,56.40
2022-08-20T14:34:51.708Z,56.10
2022-08-20T14:37:24.536Z,55.90
2022-08-20T14:39:54.508Z,55.80
2022-08-20T14:42:23.922Z,55.80
2022-08-20T14:44:51.302Z,55.70
2022-08-20T14:47:25.698Z,55.70
2022-08-20T14:49:55.775Z,55.60
2022-08-20T14:52:24.286Z,55.70
2022-08-20T14:54:55.464Z,55.70
2022-08-20T14:57:22.954Z,55.40
2022-08-20T14:59:52.724Z,55.40
2022-08-20T15:02:19.402Z,55.60
2022-08-20T15:04:51.632Z,55.60
2022-08-20T15:07:27.011Z,55.40
2022-08-20T15:09:55.282Z,55.30
2022-08-20T15:12:22.441Z,55.50
2022-08-20T15:14:49.370Z,55.40
2022-08-20T15:17:27.830Z,55.20
2022-08-20T15:19:55.510Z,54.70
2022-08-20T15:22:23.295Z,54.90
2022-08-20T15:24:50.433Z,54.90
2022-08-20T15:27:24.626Z,54.80
2022-08-20T15:29:52.198Z,54.70
2022-08-20T15:32:19.784Z,54.70
2022-08-20T15:34:46.858Z,54.60
2022-08-20T15:37:22.218Z,55.30
2022-08-20T15:39:50.313Z,54.70
2022-08-20T15:42:19.135Z,54.60
2022-08-20T15:44:46.301Z,54.60
2022-08-20T15:47:31.111Z,54.60
2022-08-20T15:50:14.086Z,54.30
2022-08-20T15:52:45.098Z,54.30
2022-08-20T15:55:14.759Z,54.50
2022-08-20T15:58:01.049Z,54.80
2022-08-20T16:00:45.624Z,54.50
2022-08-20T16:03:35.689Z,54.70
2022-08-20T16:06:22.601Z,54.80
2022-08-20T16:09:21.801Z,55.30
2022-08-20T16:12:06.161Z,54.80
2022-08-20T16:14:40.717Z,54.70
2022-08-20T16:17:15.753Z,54.80
2022-08-20T16:20:09.406Z,54.80
2022-08-20T16:22:42.922Z,54.10
2022-08-20T16:25:11.333Z,55.00
2022-08-20T16:27:56.058Z,55.20
2022-08-20T16:30:45.069Z,55.20
2022-08-20T16:33:19.079Z,55.60
2022-08-20T16:36:10.762Z,55.10
2022-08-20T16:38:48.137Z,54.70
2022-08-20T16:41:33.675Z,55.00
2022-08-20T16:44:06.980Z,54.70
2022-08-20T16:46:38.351Z,54.90
2022-08-20T16:49:13.341Z,54.90
2022-08-20T16:51:51.676Z,55.10
2022-08-20T16:54:28.520Z,55.10
2022-08-20T16:57:01.206Z,55.10
2022-08-20T16:59:28.536Z,55.40
2022-08-20T17:02:06.133Z,55.60
2022-08-20T17:04:43.238Z,55.50
2022-08-20T17:07:46.028Z,55.40
2022-08-20T17:10:29.391Z,55.40
2022-08-20T17:13:23.863Z,55.60
2022-08-20T17:16:16.499Z,55.50
2022-08-20T17:18:50.114Z,55.60
2022-08-20T17:21:25.837Z,55.60
2022-08-20T17:24:02.749Z,55.60
2022-08-20T17:26:56.080Z,55.80
2022-08-20T17:29:30.321Z,55.70
2022-08-20T17:32:00.120Z,55.90
2022-08-20T17:34:42.051Z,55.90
2022-08-20T17:37:19.186Z,55.00
2022-08-20T17:39:48.758Z,55.00
2022-08-20T17:42:20.896Z,55.00
2022-08-20T17:45:12.595Z,55.10
2022-08-20T17:47:41.624Z,55.00
2022-08-20T17:50:18.593Z,55.10
2022-08-20T17:52:54.884Z,54.90
2022-08-20T17:55:22.149Z,54.90
2022-08-20T17:57:53.039Z,55.30
2022-08-20T18:00:24.284Z,55.70
2022-08-20T18:03:05.834Z,55.60
2022-08-20T18:05:36.022Z,55.50
2022-08-20T18:08:11.813Z,55.40
2022-08-20T18:11:09.676Z,55.60
2022-08-20T18:14:00.450Z,55.70
2022-08-20T18:16:52.743Z,55.50
2022-08-20T18:20:07.894Z,55.50
2022-08-20T18:22:43.531Z,56.00
2022-08-20T18:25:26.639Z,55.70
2022-08-20T18:27:57.885Z,55.90
2022-08-20T18:30:26.573Z,55.80
2022-08-20T18:33:07.242Z,55.80
2022-08-20T18:35:45.553Z,55.70
2022-08-20T18:38:22.469Z,55.70
2022-08-20T18:40:53.255Z,56.10
2022-08-20T18:43:30.457Z,56.00
2022-08-20T18:46:28.722Z,56.00
2022-08-20T18:48:59.377Z,56.40
2022-08-20T18:51:52.067Z,57.10
2022-08-20T18:54:25.539Z,57.20
2022-08-20T18:57:06.929Z,57.50
2022-08-20T18:59:42.663Z,58.00
2022-08-20T19:02:24.952Z,57.50
2022-08-20T19:05:02.051Z,57.30
2022-08-20T19:07:48.314Z,58.00
2022-08-20T19:10:31.261Z,57.60
2022-08-20T19:13:16.087Z,57.50
2022-08-20T19:15:48.085Z,57.50
2022-08-20T19:18:38.911Z,57.50
2022-08-20T19:21:13.453Z,58.10
2022-08-20T19:23:52.144Z,58.50
2022-08-20T19:26:25.879Z,59.30
2022-08-20T19:29:00.204Z,59.30
2022-08-20T19:31:29.526Z,59.80
2022-08-20T19:34:19.833Z,59.50
2022-08-20T19:37:09.085Z,59.80
2022-08-20T19:39:47.723Z,60.10
2022-08-20T19:42:18.958Z,60.00
2022-08-20T19:45:01.420Z,60.50
2022-08-20T19:47:31.496Z,61.20
2022-08-20T19:50:22.413Z,61.20
2022-08-20T19:53:06.210Z,61.60
2022-08-20T19:55:38.044Z,61.60
2022-08-20T19:58:11.132Z,61.40
2022-08-20T20:00:54.007Z,61.10
2022-08-20T20:03:32.115Z,61.20
2022-08-20T20:06:00.532Z,60.90
2022-08-20T20:08:37.431Z,60.90
2022-08-20T20:11:05.765Z,61.30
2022-08-20T20:13:35.994Z,61.10
2022-08-20T20:16:07.259Z,60.90
2022-08-20T20:18:37.533Z,61.00
2022-08-20T20:21:23.032Z,61.30
2022-08-20T20:23:59.057Z,62.10
2022-08-20T20:26:34.540Z,61.70
2022-08-20T20:29:11.241Z,61.70
2022-08-20T20:32:02.305Z,62.10
2022-08-20T20:34:37.736Z,62.60
2022-08-20T20:37:49.766Z,62.50
2022-08-20T20:40:48.124Z,62.80
2022-08-20T20:43:26.310Z,62.80
2022-08-20T20:46:20.357Z,62.90
2022-08-20T20:49:13.438Z,63.10
2022-08-20T20:51:51.432Z,63.60
2022-08-20T20:54:47.586Z,63.20
2022-08-20T20:57:32.701Z,63.70
2022-08-20T21:00:14.861Z,63.70
2022-08-20T21:02:41.987Z,63.90
2022-08-20T21:05:10.441Z,63.70
2022-08-20T21:07:45.010Z,63.80
2022-08-20T21:10:18.577Z,64.30
2022-08-20T21:12:49.156Z,64.10
2022-08-20T21:15:19.381Z,64.10
2022-08-20T21:17:46.266Z,64.30
2022-08-20T21:20:13.078Z,64.40
2022-08-20T21:22:39.807Z,64.60
2022-08-20T21:25:07.158Z,64.70
2022-08-20T21:27:34.860Z,64.80
2022-08-20T21:30:03.762Z,64.80
2022-08-20T21:32:30.453Z,64.60
2022-08-20T21:34:57.127Z,64.30
2022-08-20T21:37:23.777Z,64.40
2022-08-20T21:39:50.466Z,64.30
2022-08-20T21:42:28.366Z,64.20
2022-08-20T21:44:56.931Z,64.00
2022-08-20T21:47:23.698Z,64.00
2022-08-20T21:49:50.378Z,63.90
2022-08-20T21:52:17.088Z,63.80
2022-08-20T21:54:43.711Z,63.80
2022-08-20T21:57:25.183Z,64.10
2022-08-20T21:59:52.315Z,64.60
2022-08-20T22:02:19.521Z,64.30
2022-08-20T22:04:46.237Z,64.40
2022-08-20T22:07:14.644Z,64.50
2022-08-20T22:09:41.576Z,64.70
2022-08-20T22:12:19.160Z,64.90
2022-08-20T22:14:46.684Z,65.50
2022-08-20T22:17:14.511Z,65.30
2022-08-20T22:19:41.686Z,65.50
2022-08-20T22:22:13.175Z,65.40
2022-08-20T22:24:40.080Z,65.60
2022-08-20T22:27:07.551Z,65.60
2022-08-20T22:29:34.457Z,65.90
2022-08-20T22:32:01.358Z,65.80
2022-08-20T22:34:31.427Z,65.90
2022-08-20T22:36:59.777Z,66.10
2022-08-20T22:39:26.963Z,66.20
2022-08-20T22:41:53.809Z,66.30
2022-08-20T22:44:20.508Z,66.50
2022-08-20T22:46:51.553Z,66.60
2022-08-20T22:49:23.717Z,66.60
2022-08-20T22:51:50.613Z,67.00
2022-08-20T22:54:21.994Z,66.90
2022-08-20T22:56:51.005Z,67.10
2022-08-20T22:59:18.608Z,67.20
2022-08-20T23:01:46.236Z,67.40
2022-08-20T23:04:33.682Z,67.40
2022-08-20T23:07:01.882Z,67.80
2022-08-20T23:09:30.254Z,67.60
2022-08-20T23:11:57.015Z,67.70
2022-08-20T23:14:23.691Z,68.70
2022-08-20T23:17:15.267Z,67.80
2022-08-20T23:19:42.521Z,68.70
2022-08-20T23:22:11.448Z,68.30
2022-08-20T23:24:38.223Z,68.40
2022-08-20T23:27:06.258Z,68.50
2022-08-20T23:29:33.274Z,68.70
2022-08-20T23:32:00.561Z,68.90
2022-08-20T23:34:28.092Z,69.20
2022-08-20T23:36:56.870Z,69.30
2022-08-20T23:39:24.828Z,69.60
2022-08-20T23:41:51.965Z,69.70
2022-08-20T23:44:26.101Z,69.70
2022-08-20T23:46:56.657Z,69.80
2022-08-20T23:49:23.342Z,69.90
2022-08-20T23:51:50.024Z,69.90
2022-08-20T23:54:16.692Z,70.00
2022-08-20T23:56:43.351Z,70.00
2022-08-20T23:59:10.060Z,70.10
